sensor_id;sensor_type;location;lat;lon;timestamp;temperature;humidity
23188;DHT22;11762;59.878;17.686;2022-12-18T00:02:21;0.40;99.90
23188;DHT22;11762;59.878;17.686;2022-12-18T00:04:49;0.50;99.90
23188;DHT22;11762;59.878;17.686;2022-12-18T00:07:17;0.50;99.90
23188;DHT22;11762;59.878;17.686;2022-12-18T00:09:44;0.50;99.90
23188;DHT22;11762;59.878;17.686;2022-12-18T00:12:12;0.50;99.90
23188;DHT22;11762;59.878;17.686;2022-12-18T00:14:39;0.50;99.90
23188;DHT22;11762;59.878;17.686;2022-12-18T00:17:06;0.50;99.90
23188;DHT22;11762;59.878;17.686;2022-12-18T00:19:33;0.50;99.90
23188;DHT22;11762;59.878;17.686;2022-12-18T00:22:00;0.50;99.90
23188;DHT22;11762;59.878;17.686;2022-12-18T00:24:28;0.50;99.90
23188;DHT22;11762;59.878;17.686;2022-12-18T00:26:56;0.50;99.90
23188;DHT22;11762;59.878;17.686;2022-12-18T00:29:23;0.50;99.90
23188;DHT22;11762;59.878;17.686;2022-12-18T00:31:50;0.50;99.90
23188;DHT22;11762;59.878;17.686;2022-12-18T00:34:17;0.60;99.90
23188;DHT22;11762;59.878;17.686;2022-12-18T00:36:46;0.60;99.90
23188;DHT22;11762;59.878;17.686;2022-12-18T00:39:14;0.60;99.90
23188;DHT22;11762;59.878;17.686;2022-12-18T00:41:42;0.60;99.90
23188;DHT22;11762;59.878;17.686;2022-12-18T00:44:27;0.60;99.90
23188;DHT22;11762;59.878;17.686;2022-12-18T00:46:54;0.60;99.90
23188;DHT22;11762;59.878;17.686;2022-12-18T00:49:21;0.60;99.90
23188;DHT22;11762;59.878;17.686;2022-12-18T02:56:39;0.80;99.90
23188;DHT22;11762;59.878;17.686;2022-12-18T02:59:12;0.80;99.90
23188;DHT22;11762;59.878;17.686;2022-12-18T03:01:45;0.80;99.90
23188;DHT22;11762;59.878;17.686;2022-12-18T03:04:22;0.80;99.90
23188;DHT22;11762;59.878;17.686;2022-12-18T03:06:55;0.80;99.90
23188;DHT22;11762;59.878;17.686;2022-12-18T03:09:30;0.80;99.90
23188;DHT22;11762;59.878;17.686;2022-12-18T03:12:04;0.70;99.90
23188;DHT22;11762;59.878;17.686;2022-12-18T03:14:54;0.70;99.90
23188;DHT22;11762;59.878;17.686;2022-12-18T03:17:25;0.70;99.90
23188;DHT22;11762;59.878;17.686;2022-12-18T03:19:54;0.70;99.90
23188;DHT22;11762;59.878;17.686;2022-12-18T03:22:24;0.70;99.90
23188;DHT22;11762;59.878;17.686;2022-12-18T03:24:54;0.70;99.90
23188;DHT22;11762;59.878;17.686;2022-12-18T03:27:25;0.70;99.90
23188;DHT22;11762;59.878;17.686;2022-12-18T03:29:59;0.70;99.90
23188;DHT22;11762;59.878;17.686;2022-12-18T03:32:35;0.70;99.90
23188;DHT22;11762;59.878;17.686;2022-12-18T03:35:05;0.70;99.90
23188;DHT22;11762;59.878;17.686;2022-12-18T03:37:33;0.70;99.90
23188;DHT22;11762;59.878;17.686;2022-12-18T03:40:01;0.70;99.90
23188;DHT22;11762;59.878;17.686;2022-12-18T03:42:34;0.70;99.90
23188;DHT22;11762;59.878;17.686;2022-12-18T03:45:09;0.70;99.90
23188;DHT22;11762;59.878;17.686;2022-12-18T03:47:41;0.70;99.90
23188;DHT22;11762;59.878;17.686;2022-12-18T03:50:16;0.70;99.90
23188;DHT22;11762;59.878;17.686;2022-12-18T03:52:49;0.70;99.90
23188;DHT22;11762;59.878;17.686;2022-12-18T03:55:18;0.70;99.90
23188;DHT22;11762;59.878;17.686;2022-12-18T03:57:48;0.70;99.90
23188;DHT22;11762;59.878;17.686;2022-12-18T04:00:17;0.70;99.90
23188;DHT22;11762;59.878;17.686;2022-12-18T04:02:47;0.70;99.90
23188;DHT22;11762;59.878;17.686;2022-12-18T04:05:16;0.70;99.90
23188;DHT22;11762;59.878;17.686;2022-12-18T04:07:45;0.70;99.90
23188;DHT22;11762;59.878;17.686;2022-12-18T04:10:15;0.70;99.90
23188;DHT22;11762;59.878;17.686;2022-12-18T04:12:42;0.70;99.90
23188;DHT22;11762;59.878;17.686;2022-12-18T04:15:11;0.70;99.90
23188;DHT22;11762;59.878;17.686;2022-12-18T04:17:43;0.70;99.90
23188;DHT22;11762;59.878;17.686;2022-12-18T04:20:13;0.70;99.90
23188;DHT22;11762;59.878;17.686;2022-12-18T04:22:40;0.70;99.90
23188;DHT22;11762;59.878;17.686;2022-12-18T04:25:08;0.60;99.90
23188;DHT22;11762;59.878;17.686;2022-12-18T04:27:38;0.70;99.90
23188;DHT22;11762;59.878;17.686;2022-12-18T04:30:06;0.70;99.90
23188;DHT22;11762;59.878;17.686;2022-12-18T04:32:35;0.70;99.90
23188;DHT22;11762;59.878;17.686;2022-12-18T04:35:02;0.60;99.90
23188;DHT22;11762;59.878;17.686;2022-12-18T04:37:32;0.60;99.90
23188;DHT22;11762;59.878;17.686;2022-12-18T04:39:59;0.60;99.90
23188;DHT22;11762;59.878;17.686;2022-12-18T04:42:26;0.60;99.90
23188;DHT22;11762;59.878;17.686;2022-12-18T04:44:53;0.60;99.90
23188;DHT22;11762;59.878;17.686;2022-12-18T04:47:20;0.60;99.90
23188;DHT22;11762;59.878;17.686;2022-12-18T04:49:48;0.60;99.90
23188;DHT22;11762;59.878;17.686;2022-12-18T04:52:15;0.50;99.90
23188;DHT22;11762;59.878;17.686;2022-12-18T04:54:42;0.50;99.90
23188;DHT22;11762;59.878;17.686;2022-12-18T04:57:09;0.50;99.90
23188;DHT22;11762;59.878;17.686;2022-12-18T04:59:36;0.50;99.90
23188;DHT22;11762;59.878;17.686;2022-12-18T05:02:03;0.50;99.90
23188;DHT22;11762;59.878;17.686;2022-12-18T05:04:31;0.50;99.90
23188;DHT22;11762;59.878;17.686;2022-12-18T05:06:59;0.50;99.90
23188;DHT22;11762;59.878;17.686;2022-12-18T05:09:26;0.50;99.90
23188;DHT22;11762;59.878;17.686;2022-12-18T05:11:53;0.50;99.90
23188;DHT22;11762;59.878;17.686;2022-12-18T05:14:20;0.40;99.90
23188;DHT22;11762;59.878;17.686;2022-12-18T05:16:47;0.50;99.90
23188;DHT22;11762;59.878;17.686;2022-12-18T05:19:14;0.40;99.90
23188;DHT22;11762;59.878;17.686;2022-12-18T05:21:41;0.40;99.90
23188;DHT22;11762;59.878;17.686;2022-12-18T05:24:09;0.40;99.90
23188;DHT22;11762;59.878;17.686;2022-12-18T05:26:37;0.40;99.90
23188;DHT22;11762;59.878;17.686;2022-12-18T05:29:04;0.40;99.90
23188;DHT22;11762;59.878;17.686;2022-12-18T05:31:31;0.40;99.90
23188;DHT22;11762;59.878;17.686;2022-12-18T05:33:58;0.40;99.90
23188;DHT22;11762;59.878;17.686;2022-12-18T05:36:25;0.40;99.90
23188;DHT22;11762;59.878;17.686;2022-12-18T05:38:52;0.40;99.90
23188;DHT22;11762;59.878;17.686;2022-12-18T05:41:21;0.40;99.90
23188;DHT22;11762;59.878;17.686;2022-12-18T05:43:48;0.40;99.90
23188;DHT22;11762;59.878;17.686;2022-12-18T05:46:16;0.40;99.90
23188;DHT22;11762;59.878;17.686;2022-12-18T05:48:44;0.40;99.90
23188;DHT22;11762;59.878;17.686;2022-12-18T05:51:13;0.40;99.90
23188;DHT22;11762;59.878;17.686;2022-12-18T05:53:40;0.40;99.90
23188;DHT22;11762;59.878;17.686;2022-12-18T05:56:09;0.40;99.90
23188;DHT22;11762;59.878;17.686;2022-12-18T05:58:38;0.40;99.90
23188;DHT22;11762;59.878;17.686;2022-12-18T06:01:11;0.40;99.90
23188;DHT22;11762;59.878;17.686;2022-12-18T06:03:38;0.40;99.90
23188;DHT22;11762;59.878;17.686;2022-12-18T06:06:13;0.30;99.90
23188;DHT22;11762;59.878;17.686;2022-12-18T06:08:40;0.30;99.90
23188;DHT22;11762;59.878;17.686;2022-12-18T06:11:07;0.30;99.90
23188;DHT22;11762;59.878;17.686;2022-12-18T06:13:34;0.30;99.90
23188;DHT22;11762;59.878;17.686;2022-12-18T06:16:03;0.30;99.90
23188;DHT22;11762;59.878;17.686;2022-12-18T06:18:31;0.40;99.90
23188;DHT22;11762;59.878;17.686;2022-12-18T06:20:59;0.40;99.90
23188;DHT22;11762;59.878;17.686;2022-12-18T06:23:27;0.40;99.90
23188;DHT22;11762;59.878;17.686;2022-12-18T06:25:54;0.40;99.90
23188;DHT22;11762;59.878;17.686;2022-12-18T06:28:21;0.40;99.90
23188;DHT22;11762;59.878;17.686;2022-12-18T06:30:49;0.40;99.90
23188;DHT22;11762;59.878;17.686;2022-12-18T06:33:17;0.40;99.90
23188;DHT22;11762;59.878;17.686;2022-12-18T06:35:44;0.40;99.90
23188;DHT22;11762;59.878;17.686;2022-12-18T06:38:11;0.30;99.90
23188;DHT22;11762;59.878;17.686;2022-12-18T06:40:38;0.30;99.90
23188;DHT22;11762;59.878;17.686;2022-12-18T06:43:06;0.40;99.90
23188;DHT22;11762;59.878;17.686;2022-12-18T06:45:33;0.40;99.90
23188;DHT22;11762;59.878;17.686;2022-12-18T06:48:00;0.40;99.90
23188;DHT22;11762;59.878;17.686;2022-12-18T06:50:29;0.30;99.90
23188;DHT22;11762;59.878;17.686;2022-12-18T06:52:56;0.30;99.90
23188;DHT22;11762;59.878;17.686;2022-12-18T06:55:23;0.30;99.90
23188;DHT22;11762;59.878;17.686;2022-12-18T06:57:50;0.40;99.90
23188;DHT22;11762;59.878;17.686;2022-12-18T07:00:17;0.30;99.90
23188;DHT22;11762;59.878;17.686;2022-12-18T07:02:45;0.30;99.90
23188;DHT22;11762;59.878;17.686;2022-12-18T07:05:12;0.30;99.90
23188;DHT22;11762;59.878;17.686;2022-12-18T07:07:40;0.30;99.90
23188;DHT22;11762;59.878;17.686;2022-12-18T07:10:08;0.30;99.90
23188;DHT22;11762;59.878;17.686;2022-12-18T07:12:35;0.30;99.90
23188;DHT22;11762;59.878;17.686;2022-12-18T07:15:02;0.40;99.90
23188;DHT22;11762;59.878;17.686;2022-12-18T07:17:29;0.40;99.90
23188;DHT22;11762;59.878;17.686;2022-12-18T07:19:57;0.40;99.90
23188;DHT22;11762;59.878;17.686;2022-12-18T07:22:25;0.40;99.90
23188;DHT22;11762;59.878;17.686;2022-12-18T07:24:53;0.40;99.90
23188;DHT22;11762;59.878;17.686;2022-12-18T07:27:21;0.40;99.90
23188;DHT22;11762;59.878;17.686;2022-12-18T07:29:48;0.40;99.90
23188;DHT22;11762;59.878;17.686;2022-12-18T07:32:15;0.40;99.90
23188;DHT22;11762;59.878;17.686;2022-12-18T07:34:42;0.40;99.90
23188;DHT22;11762;59.878;17.686;2022-12-18T07:37:09;0.40;99.90
23188;DHT22;11762;59.878;17.686;2022-12-18T07:39:36;0.40;99.90
23188;DHT22;11762;59.878;17.686;2022-12-18T07:42:05;0.40;99.90
23188;DHT22;11762;59.878;17.686;2022-12-18T07:44:49;0.50;99.90
23188;DHT22;11762;59.878;17.686;2022-12-18T07:47:16;0.50;99.90
23188;DHT22;11762;59.878;17.686;2022-12-18T07:49:43;0.50;99.90
23188;DHT22;11762;59.878;17.686;2022-12-18T07:52:10;0.50;99.90
23188;DHT22;11762;59.878;17.686;2022-12-18T07:54:38;0.50;99.90
23188;DHT22;11762;59.878;17.686;2022-12-18T07:57:07;0.50;99.90
23188;DHT22;11762;59.878;17.686;2022-12-18T07:59:34;0.50;99.90
23188;DHT22;11762;59.878;17.686;2022-12-18T08:02:02;0.50;99.90
23188;DHT22;11762;59.878;17.686;2022-12-18T08:04:29;0.50;99.90
23188;DHT22;11762;59.878;17.686;2022-12-18T08:06:56;0.50;99.90
23188;DHT22;11762;59.878;17.686;2022-12-18T08:09:23;0.50;99.90
23188;DHT22;11762;59.878;17.686;2022-12-18T08:11:50;0.50;99.90
23188;DHT22;11762;59.878;17.686;2022-12-18T08:14:18;0.60;99.90
23188;DHT22;11762;59.878;17.686;2022-12-18T08:16:45;0.60;99.90
23188;DHT22;11762;59.878;17.686;2022-12-18T08:19:12;0.60;99.90
23188;DHT22;11762;59.878;17.686;2022-12-18T08:21:39;0.60;99.90
23188;DHT22;11762;59.878;17.686;2022-12-18T08:24:08;0.60;99.90
23188;DHT22;11762;59.878;17.686;2022-12-18T08:26:35;0.60;99.90
23188;DHT22;11762;59.878;17.686;2022-12-18T08:29:02;0.60;99.90
23188;DHT22;11762;59.878;17.686;2022-12-18T08:31:31;0.60;99.90
23188;DHT22;11762;59.878;17.686;2022-12-18T08:33:58;0.60;99.90
23188;DHT22;11762;59.878;17.686;2022-12-18T08:36:25;0.60;99.90
23188;DHT22;11762;59.878;17.686;2022-12-18T08:38:53;0.70;99.90
23188;DHT22;11762;59.878;17.686;2022-12-18T08:41:20;0.60;99.90
23188;DHT22;11762;59.878;17.686;2022-12-18T08:43:48;0.70;99.90
23188;DHT22;11762;59.878;17.686;2022-12-18T08:46:36;0.70;99.90
23188;DHT22;11762;59.878;17.686;2022-12-18T08:49:04;0.70;99.90
23188;DHT22;11762;59.878;17.686;2022-12-18T08:51:32;0.70;99.90
23188;DHT22;11762;59.878;17.686;2022-12-18T08:54:00;0.70;99.90
23188;DHT22;11762;59.878;17.686;2022-12-18T08:56:27;0.70;99.90
23188;DHT22;11762;59.878;17.686;2022-12-18T08:58:55;0.70;99.90
23188;DHT22;11762;59.878;17.686;2022-12-18T09:01:23;0.80;99.90
23188;DHT22;11762;59.878;17.686;2022-12-18T09:03:51;0.80;99.90
23188;DHT22;11762;59.878;17.686;2022-12-18T09:06:20;0.80;99.90
23188;DHT22;11762;59.878;17.686;2022-12-18T09:08:48;0.80;99.90
23188;DHT22;11762;59.878;17.686;2022-12-18T09:11:19;0.80;99.90
23188;DHT22;11762;59.878;17.686;2022-12-18T09:13:47;0.80;99.90
23188;DHT22;11762;59.878;17.686;2022-12-18T09:16:14;0.80;99.90
23188;DHT22;11762;59.878;17.686;2022-12-18T09:18:41;0.90;99.90
23188;DHT22;11762;59.878;17.686;2022-12-18T09:21:11;0.90;99.90
23188;DHT22;11762;59.878;17.686;2022-12-18T09:23:38;0.90;99.90
23188;DHT22;11762;59.878;17.686;2022-12-18T09:26:05;0.90;99.90
23188;DHT22;11762;59.878;17.686;2022-12-18T09:28:33;0.90;99.90
23188;DHT22;11762;59.878;17.686;2022-12-18T09:31:04;0.90;99.90
23188;DHT22;11762;59.878;17.686;2022-12-18T09:33:32;1.00;99.90
23188;DHT22;11762;59.878;17.686;2022-12-18T09:36:01;1.00;99.90
23188;DHT22;11762;59.878;17.686;2022-12-18T09:38:30;1.00;99.90
23188;DHT22;11762;59.878;17.686;2022-12-18T09:41:00;1.00;99.90
23188;DHT22;11762;59.878;17.686;2022-12-18T09:43:34;1.00;99.90
23188;DHT22;11762;59.878;17.686;2022-12-18T09:46:06;1.00;99.90
23188;DHT22;11762;59.878;17.686;2022-12-18T09:48:37;1.10;99.90
23188;DHT22;11762;59.878;17.686;2022-12-18T09:51:13;1.10;99.90
23188;DHT22;11762;59.878;17.686;2022-12-18T09:53:45;1.10;99.90
23188;DHT22;11762;59.878;17.686;2022-12-18T09:56:17;1.10;99.90
23188;DHT22;11762;59.878;17.686;2022-12-18T09:58:50;1.10;99.90
23188;DHT22;11762;59.878;17.686;2022-12-18T10:01:22;1.20;99.90
23188;DHT22;11762;59.878;17.686;2022-12-18T10:03:49;1.20;99.90
23188;DHT22;11762;59.878;17.686;2022-12-18T10:06:22;1.20;99.90
23188;DHT22;11762;59.878;17.686;2022-12-18T10:08:56;1.20;99.90
23188;DHT22;11762;59.878;17.686;2022-12-18T10:11:34;1.30;99.90
23188;DHT22;11762;59.878;17.686;2022-12-18T10:14:11;1.30;99.90
23188;DHT22;11762;59.878;17.686;2022-12-18T10:16:50;1.30;99.90
23188;DHT22;11762;59.878;17.686;2022-12-18T10:19:35;1.30;99.90
23188;DHT22;11762;59.878;17.686;2022-12-18T10:22:15;1.30;99.90
23188;DHT22;11762;59.878;17.686;2022-12-18T10:24:50;1.30;99.90
23188;DHT22;11762;59.878;17.686;2022-12-18T10:27:23;1.40;99.90
23188;DHT22;11762;59.878;17.686;2022-12-18T10:29:50;1.40;99.90
23188;DHT22;11762;59.878;17.686;2022-12-18T10:32:20;1.40;99.90
23188;DHT22;11762;59.878;17.686;2022-12-18T10:34:48;1.40;99.90
23188;DHT22;11762;59.878;17.686;2022-12-18T10:37:17;1.40;99.90
23188;DHT22;11762;59.878;17.686;2022-12-18T10:39:46;1.40;99.90
23188;DHT22;11762;59.878;17.686;2022-12-18T10:42:31;1.40;99.90
23188;DHT22;11762;59.878;17.686;2022-12-18T10:45:02;1.40;99.90
23188;DHT22;11762;59.878;17.686;2022-12-18T10:47:30;1.40;99.90
23188;DHT22;11762;59.878;17.686;2022-12-18T10:49:57;1.50;99.90
23188;DHT22;11762;59.878;17.686;2022-12-18T10:52:25;1.50;99.90
23188;DHT22;11762;59.878;17.686;2022-12-18T10:54:58;1.50;99.90
23188;DHT22;11762;59.878;17.686;2022-12-18T10:57:33;1.50;99.90
23188;DHT22;11762;59.878;17.686;2022-12-18T11:00:27;1.60;99.90
23188;DHT22;11762;59.878;17.686;2022-12-18T11:02:55;1.60;99.90
23188;DHT22;11762;59.878;17.686;2022-12-18T11:05:30;1.60;99.90
23188;DHT22;11762;59.878;17.686;2022-12-18T11:07:58;1.60;99.90
23188;DHT22;11762;59.878;17.686;2022-12-18T11:10:30;1.70;99.90
23188;DHT22;11762;59.878;17.686;2022-12-18T11:13:12;1.70;99.90
23188;DHT22;11762;59.878;17.686;2022-12-18T11:15:42;1.70;99.90
23188;DHT22;11762;59.878;17.686;2022-12-18T11:18:17;1.80;99.90
23188;DHT22;11762;59.878;17.686;2022-12-18T11:20:51;1.80;99.90
23188;DHT22;11762;59.878;17.686;2022-12-18T11:23:19;1.80;99.90
23188;DHT22;11762;59.878;17.686;2022-12-18T11:25:54;1.80;99.90
23188;DHT22;11762;59.878;17.686;2022-12-18T11:28:34;1.80;99.90
23188;DHT22;11762;59.878;17.686;2022-12-18T11:31:24;1.80;99.90
23188;DHT22;11762;59.878;17.686;2022-12-18T11:33:58;1.90;99.90
23188;DHT22;11762;59.878;17.686;2022-12-18T11:36:31;1.90;99.90
23188;DHT22;11762;59.878;17.686;2022-12-18T11:39:01;1.90;99.90
23188;DHT22;11762;59.878;17.686;2022-12-18T11:41:34;1.90;99.90
23188;DHT22;11762;59.878;17.686;2022-12-18T11:44:25;1.90;99.90
23188;DHT22;11762;59.878;17.686;2022-12-18T11:46:59;2.00;99.90
23188;DHT22;11762;59.878;17.686;2022-12-18T11:49:30;2.00;99.90
23188;DHT22;11762;59.878;17.686;2022-12-18T11:52:04;2.00;99.90
23188;DHT22;11762;59.878;17.686;2022-12-18T11:54:33;2.00;99.90
23188;DHT22;11762;59.878;17.686;2022-12-18T11:57:06;2.00;99.90
23188;DHT22;11762;59.878;17.686;2022-12-18T11:59:43;2.00;99.90
23188;DHT22;11762;59.878;17.686;2022-12-18T12:02:29;2.00;99.90
23188;DHT22;11762;59.878;17.686;2022-12-18T12:05:21;2.00;99.90
23188;DHT22;11762;59.878;17.686;2022-12-18T12:07:57;2.00;99.90
23188;DHT22;11762;59.878;17.686;2022-12-18T12:10:38;2.00;99.90
23188;DHT22;11762;59.878;17.686;2022-12-18T12:13:19;2.10;99.90
23188;DHT22;11762;59.878;17.686;2022-12-18T12:15:57;2.10;99.90
23188;DHT22;11762;59.878;17.686;2022-12-18T12:18:35;2.10;99.90
23188;DHT22;11762;59.878;17.686;2022-12-18T12:21:22;2.10;99.90
23188;DHT22;11762;59.878;17.686;2022-12-18T12:23:58;2.10;99.90
23188;DHT22;11762;59.878;17.686;2022-12-18T12:26:33;2.10;99.90
23188;DHT22;11762;59.878;17.686;2022-12-18T12:29:18;2.10;99.90
23188;DHT22;11762;59.878;17.686;2022-12-18T12:32:13;2.10;99.90
23188;DHT22;11762;59.878;17.686;2022-12-18T12:34:53;2.20;99.90
23188;DHT22;11762;59.878;17.686;2022-12-18T12:37:30;2.10;99.90
23188;DHT22;11762;59.878;17.686;2022-12-18T12:40:01;2.10;99.90
23188;DHT22;11762;59.878;17.686;2022-12-18T12:42:32;2.10;99.90
23188;DHT22;11762;59.878;17.686;2022-12-18T12:45:23;2.20;99.90
23188;DHT22;11762;59.878;17.686;2022-12-18T12:47:53;2.20;99.90
23188;DHT22;11762;59.878;17.686;2022-12-18T12:50:21;2.10;99.90
23188;DHT22;11762;59.878;17.686;2022-12-18T12:52:51;2.20;99.90
23188;DHT22;11762;59.878;17.686;2022-12-18T12:55:21;2.20;99.90
23188;DHT22;11762;59.878;17.686;2022-12-18T12:57:55;2.20;99.90
23188;DHT22;11762;59.878;17.686;2022-12-18T13:00:26;2.20;99.90
23188;DHT22;11762;59.878;17.686;2022-12-18T13:03:01;2.20;99.90
23188;DHT22;11762;59.878;17.686;2022-12-18T13:05:34;2.20;99.90
23188;DHT22;11762;59.878;17.686;2022-12-18T13:08:07;2.20;99.90
23188;DHT22;11762;59.878;17.686;2022-12-18T13:10:36;2.20;99.90
23188;DHT22;11762;59.878;17.686;2022-12-18T13:13:05;2.20;99.90
23188;DHT22;11762;59.878;17.686;2022-12-18T13:15:37;2.20;99.90
23188;DHT22;11762;59.878;17.686;2022-12-18T13:18:17;2.20;99.90
23188;DHT22;11762;59.878;17.686;2022-12-18T13:20:46;2.30;99.90
23188;DHT22;11762;59.878;17.686;2022-12-18T13:23:32;2.20;99.90
23188;DHT22;11762;59.878;17.686;2022-12-18T13:26:32;2.30;99.90
23188;DHT22;11762;59.878;17.686;2022-12-18T13:29:00;2.30;99.90
23188;DHT22;11762;59.878;17.686;2022-12-18T13:31:59;2.30;99.90
23188;DHT22;11762;59.878;17.686;2022-12-18T13:34:28;2.30;99.90
23188;DHT22;11762;59.878;17.686;2022-12-18T13:36:57;2.30;99.90
23188;DHT22;11762;59.878;17.686;2022-12-18T13:39:44;2.30;99.90
23188;DHT22;11762;59.878;17.686;2022-12-18T13:42:38;2.30;99.90
23188;DHT22;11762;59.878;17.686;2022-12-18T13:45:45;2.30;99.90
23188;DHT22;11762;59.878;17.686;2022-12-18T13:48:21;2.30;99.90
23188;DHT22;11762;59.878;17.686;2022-12-18T13:50:52;2.20;99.90
23188;DHT22;11762;59.878;17.686;2022-12-18T13:53:22;2.30;99.90
23188;DHT22;11762;59.878;17.686;2022-12-18T13:55:50;2.20;99.90
23188;DHT22;11762;59.878;17.686;2022-12-18T13:58:17;2.10;99.90
23188;DHT22;11762;59.878;17.686;2022-12-18T14:00:44;2.20;99.90
23188;DHT22;11762;59.878;17.686;2022-12-18T14:03:20;2.10;99.90
23188;DHT22;11762;59.878;17.686;2022-12-18T14:05:53;2.10;99.90
23188;DHT22;11762;59.878;17.686;2022-12-18T14:08:21;2.10;99.90
23188;DHT22;11762;59.878;17.686;2022-12-18T14:10:53;2.20;99.90
23188;DHT22;11762;59.878;17.686;2022-12-18T14:13:24;2.20;99.90
23188;DHT22;11762;59.878;17.686;2022-12-18T14:15:54;2.20;99.90
23188;DHT22;11762;59.878;17.686;2022-12-18T14:18:25;2.30;99.90
23188;DHT22;11762;59.878;17.686;2022-12-18T14:20:55;2.30;99.90
23188;DHT22;11762;59.878;17.686;2022-12-18T14:23:31;2.30;99.90
23188;DHT22;11762;59.878;17.686;2022-12-18T14:25:59;2.40;99.90
23188;DHT22;11762;59.878;17.686;2022-12-18T14:28:27;2.40;99.90
23188;DHT22;11762;59.878;17.686;2022-12-18T14:30:54;2.40;99.90
23188;DHT22;11762;59.878;17.686;2022-12-18T14:33:24;2.40;99.90
23188;DHT22;11762;59.878;17.686;2022-12-18T14:35:54;2.40;99.90
23188;DHT22;11762;59.878;17.686;2022-12-18T14:38:25;2.50;99.90
23188;DHT22;11762;59.878;17.686;2022-12-18T14:40:53;2.50;99.90
23188;DHT22;11762;59.878;17.686;2022-12-18T14:43:21;2.50;99.90
23188;DHT22;11762;59.878;17.686;2022-12-18T14:45:49;2.50;99.90
23188;DHT22;11762;59.878;17.686;2022-12-18T14:48:19;2.50;99.90
23188;DHT22;11762;59.878;17.686;2022-12-18T14:50:57;2.50;99.90
23188;DHT22;11762;59.878;17.686;2022-12-18T14:53:33;2.50;99.90
23188;DHT22;11762;59.878;17.686;2022-12-18T14:56:01;2.50;99.90
23188;DHT22;11762;59.878;17.686;2022-12-18T14:58:28;2.50;99.90
23188;DHT22;11762;59.878;17.686;2022-12-18T15:00:55;2.50;99.90
23188;DHT22;11762;59.878;17.686;2022-12-18T15:03:23;2.50;99.90
23188;DHT22;11762;59.878;17.686;2022-12-18T15:05:50;2.50;99.90
23188;DHT22;11762;59.878;17.686;2022-12-18T15:08:35;2.50;99.90
23188;DHT22;11762;59.878;17.686;2022-12-18T15:11:03;2.50;99.90
23188;DHT22;11762;59.878;17.686;2022-12-18T15:13:30;2.60;99.90
23188;DHT22;11762;59.878;17.686;2022-12-18T15:16:00;2.60;99.90
23188;DHT22;11762;59.878;17.686;2022-12-18T15:18:31;2.60;99.90
23188;DHT22;11762;59.878;17.686;2022-12-18T15:21:06;2.60;99.90
23188;DHT22;11762;59.878;17.686;2022-12-18T15:23:38;2.50;99.90
23188;DHT22;11762;59.878;17.686;2022-12-18T15:26:13;2.50;99.90
23188;DHT22;11762;59.878;17.686;2022-12-18T15:28:44;2.50;99.90
23188;DHT22;11762;59.878;17.686;2022-12-18T15:31:30;2.50;99.90
23188;DHT22;11762;59.878;17.686;2022-12-18T15:34:10;2.50;99.90
23188;DHT22;11762;59.878;17.686;2022-12-18T15:36:38;2.50;99.90
23188;DHT22;11762;59.878;17.686;2022-12-18T15:39:06;2.50;99.90
23188;DHT22;11762;59.878;17.686;2022-12-18T15:41:36;2.50;99.90
23188;DHT22;11762;59.878;17.686;2022-12-18T15:44:21;2.50;99.90
23188;DHT22;11762;59.878;17.686;2022-12-18T15:46:47;2.50;99.90
23188;DHT22;11762;59.878;17.686;2022-12-18T15:49:14;2.40;99.90
23188;DHT22;11762;59.878;17.686;2022-12-18T15:51:44;2.40;99.90
23188;DHT22;11762;59.878;17.686;2022-12-18T15:54:14;2.50;99.90
23188;DHT22;11762;59.878;17.686;2022-12-18T15:56:42;2.50;99.90
23188;DHT22;11762;59.878;17.686;2022-12-18T15:59:26;2.50;99.90
23188;DHT22;11762;59.878;17.686;2022-12-18T16:01:54;2.50;99.90
23188;DHT22;11762;59.878;17.686;2022-12-18T16:04:22;2.50;99.90
23188;DHT22;11762;59.878;17.686;2022-12-18T16:06:50;2.50;99.90
23188;DHT22;11762;59.878;17.686;2022-12-18T16:09:19;2.50;99.90
23188;DHT22;11762;59.878;17.686;2022-12-18T16:11:46;2.50;99.90
23188;DHT22;11762;59.878;17.686;2022-12-18T16:14:17;2.50;99.90
23188;DHT22;11762;59.878;17.686;2022-12-18T16:16:45;2.40;99.90
23188;DHT22;11762;59.878;17.686;2022-12-18T16:19:12;2.40;99.90
23188;DHT22;11762;59.878;17.686;2022-12-18T16:21:39;2.30;99.90
23188;DHT22;11762;59.878;17.686;2022-12-18T16:24:14;2.30;99.90
23188;DHT22;11762;59.878;17.686;2022-12-18T16:26:43;2.20;99.90
23188;DHT22;11762;59.878;17.686;2022-12-18T16:29:11;2.20;99.90
23188;DHT22;11762;59.878;17.686;2022-12-18T16:31:38;2.20;99.90
23188;DHT22;11762;59.878;17.686;2022-12-18T16:34:12;2.10;99.90
23188;DHT22;11762;59.878;17.686;2022-12-18T16:36:39;2.10;99.90
23188;DHT22;11762;59.878;17.686;2022-12-18T16:39:06;2.00;99.90
23188;DHT22;11762;59.878;17.686;2022-12-18T16:41:33;2.00;99.90
23188;DHT22;11762;59.878;17.686;2022-12-18T16:44:03;1.90;99.90
23188;DHT22;11762;59.878;17.686;2022-12-18T16:46:30;1.90;99.90
23188;DHT22;11762;59.878;17.686;2022-12-18T16:48:57;1.90;99.90
23188;DHT22;11762;59.878;17.686;2022-12-18T16:51:25;1.80;99.90
23188;DHT22;11762;59.878;17.686;2022-12-18T16:53:53;1.80;99.90
23188;DHT22;11762;59.878;17.686;2022-12-18T16:56:21;1.80;99.90
23188;DHT22;11762;59.878;17.686;2022-12-18T16:58:51;1.80;99.90
23188;DHT22;11762;59.878;17.686;2022-12-18T17:01:20;1.70;99.90
23188;DHT22;11762;59.878;17.686;2022-12-18T17:03:51;1.70;99.90
23188;DHT22;11762;59.878;17.686;2022-12-18T17:06:19;1.70;99.90
23188;DHT22;11762;59.878;17.686;2022-12-18T17:08:46;1.60;99.90
23188;DHT22;11762;59.878;17.686;2022-12-18T17:11:14;1.60;99.90
23188;DHT22;11762;59.878;17.686;2022-12-18T17:13:41;1.60;99.90
23188;DHT22;11762;59.878;17.686;2022-12-18T17:16:09;1.50;99.90
23188;DHT22;11762;59.878;17.686;2022-12-18T17:18:37;1.50;99.90
23188;DHT22;11762;59.878;17.686;2022-12-18T17:21:05;1.40;99.90
23188;DHT22;11762;59.878;17.686;2022-12-18T17:23:34;1.40;99.90
23188;DHT22;11762;59.878;17.686;2022-12-18T17:26:03;1.30;99.90
23188;DHT22;11762;59.878;17.686;2022-12-18T17:28:32;1.30;99.90
23188;DHT22;11762;59.878;17.686;2022-12-18T17:31:00;1.20;99.90
23188;DHT22;11762;59.878;17.686;2022-12-18T17:33:27;1.20;99.90
23188;DHT22;11762;59.878;17.686;2022-12-18T17:35:57;1.20;99.90
23188;DHT22;11762;59.878;17.686;2022-12-18T17:38:24;1.20;99.90
23188;DHT22;11762;59.878;17.686;2022-12-18T17:40:52;1.20;99.90
23188;DHT22;11762;59.878;17.686;2022-12-18T17:43:19;1.10;99.90
23188;DHT22;11762;59.878;17.686;2022-12-18T17:45:46;1.10;99.90
23188;DHT22;11762;59.878;17.686;2022-12-18T17:48:13;1.10;99.90
23188;DHT22;11762;59.878;17.686;2022-12-18T17:50:40;1.00;99.90
23188;DHT22;11762;59.878;17.686;2022-12-18T17:53:08;1.00;99.90
23188;DHT22;11762;59.878;17.686;2022-12-18T17:55:35;1.00;99.90
23188;DHT22;11762;59.878;17.686;2022-12-18T17:58:03;0.90;99.90